createdAt,value
2019-06-07T00:00:29.624Z,26.02
2019-06-07T00:01:11.319Z,26.04
2019-06-07T00:02:10.662Z,26.05
2019-06-07T00:03:15.797Z,26.02
2019-06-07T00:04:12.045Z,26.05
2019-06-07T00:05:10.117Z,26.05
2019-06-07T00:06:13.045Z,26.06
2019-06-07T00:07:12.598Z,26.09
2019-06-07T00:08:17.198Z,26.02
2019-06-07T00:09:12.640Z,26.06
2019-06-07T00:10:15.421Z,26.09
2019-06-07T00:11:15.078Z,26.05
2019-06-07T00:12:12.244Z,26.05
2019-06-07T00:13:09.865Z,26.04
2019-06-07T00:14:13.054Z,26.08
2019-06-07T00:15:14.433Z,25.99
2019-06-07T00:16:11.937Z,26.05
2019-06-07T00:17:12.511Z,26.01
2019-06-07T00:18:11.839Z,25.99
2019-06-07T00:19:09.698Z,26.01
2019-06-07T00:20:14.766Z,25.98
2019-06-07T00:21:11.790Z,26.04
2019-06-07T00:22:30.032Z,25.97
2019-06-07T00:23:12.274Z,25.94
2019-06-07T00:24:13.064Z,25.99
2019-06-07T00:25:13.384Z,26.05
2019-06-07T00:26:10.848Z,26.02
2019-06-07T00:27:11.015Z,25.98
2019-06-07T00:28:10.701Z,25.98
2019-06-07T00:29:11.763Z,26.02
2019-06-07T00:30:32.746Z,25.94
2019-06-07T00:31:11.521Z,26.01
2019-06-07T00:32:09.428Z,25.94
2019-06-07T00:33:11.037Z,25.94
2019-06-07T00:34:11.873Z,25.99
2019-06-07T00:35:09.516Z,25.99
2019-06-07T00:36:10.083Z,26.01
2019-06-07T00:37:11.195Z,25.98
2019-06-07T00:38:09.457Z,26.02
2019-06-07T00:39:10.656Z,25.97
2019-06-07T00:40:16.966Z,25.99
2019-06-07T00:41:10.206Z,26.01
2019-06-07T00:42:10.836Z,25.99
2019-06-07T00:43:13.353Z,26.01
2019-06-07T00:44:10.313Z,25.99
2019-06-07T00:45:11.025Z,25.99
2019-06-07T00:46:12.852Z,25.98
2019-06-07T00:47:10.590Z,25.98
2019-06-07T00:48:16.179Z,25.93
2019-06-07T00:49:13.161Z,25.98
2019-06-07T00:50:11.126Z,26.01
2019-06-07T00:51:09.111Z,25.98
2019-06-07T00:52:09.182Z,25.99
2019-06-07T00:53:17.177Z,26.02
2019-06-07T00:54:11.877Z,25.98
2019-06-07T00:55:09.156Z,25.98
2019-06-07T00:56:09.139Z,25.97
2019-06-07T00:57:09.122Z,25.97
2019-06-07T00:58:09.108Z,25.97
2019-06-07T00:59:11.514Z,25.99
2019-06-07T01:00:09.103Z,26.02
2019-06-07T01:01:09.085Z,25.98
2019-06-07T01:02:09.090Z,25.98
2019-06-07T01:03:09.084Z,25.99
2019-06-07T01:04:09.039Z,25.99
2019-06-07T01:05:09.098Z,25.99
2019-06-07T01:06:09.021Z,25.98
2019-06-07T01:07:09.013Z,25.98
2019-06-07T01:08:09.021Z,25.99
2019-06-07T01:09:08.990Z,26.01
2019-06-07T01:10:08.982Z,25.99
2019-06-07T01:11:09.287Z,25.98
2019-06-07T01:12:08.948Z,26.01
2019-06-07T01:13:08.972Z,26.02
2019-06-07T01:14:08.970Z,25.98
2019-06-07T01:15:08.948Z,25.89
2019-06-07T01:16:08.909Z,25.97
2019-06-07T01:17:23.361Z,25.98
2019-06-07T01:18:35.776Z,25.94
2019-06-07T01:19:09.783Z,25.98
2019-06-07T01:20:08.861Z,25.97
2019-06-07T01:21:08.912Z,25.99
2019-06-07T01:22:08.896Z,25.94
2019-06-07T01:23:52.000Z,26.01
2019-06-07T01:24:12.487Z,25.93
2019-06-07T01:25:08.882Z,25.97
2019-06-07T01:26:08.883Z,25.99
2019-06-07T01:27:08.775Z,25.98
2019-06-07T01:28:08.820Z,25.97
2019-06-07T01:29:08.789Z,25.98
2019-06-07T01:30:08.755Z,25.93
2019-06-07T01:31:08.756Z,25.98
2019-06-07T01:32:08.732Z,25.90
2019-06-07T01:33:08.725Z,25.97
2019-06-07T01:34:08.776Z,25.91
2019-06-07T01:35:08.701Z,25.84
2019-06-07T01:36:08.734Z,26.02
2019-06-07T01:37:08.669Z,25.90
2019-06-07T01:38:08.666Z,25.99
2019-06-07T01:39:08.650Z,25.94
2019-06-07T01:40:08.715Z,25.93
2019-06-07T01:41:08.636Z,25.93
2019-06-07T01:42:08.611Z,25.98
2019-06-07T01:43:08.623Z,25.98
2019-06-07T01:44:08.592Z,25.97
2019-06-07T01:45:08.590Z,25.91
2019-06-07T01:46:08.615Z,25.87
2019-06-07T01:47:08.565Z,25.90
2019-06-07T01:48:08.555Z,25.94
2019-06-07T01:49:08.539Z,25.86
2019-06-07T01:50:08.533Z,25.98
2019-06-07T01:51:08.511Z,25.98
2019-06-07T01:52:08.554Z,25.86
2019-06-07T01:53:08.498Z,25.90
2019-06-07T01:55:09.425Z,25.93
2019-06-07T01:56:08.458Z,25.94
2019-06-07T01:57:08.471Z,25.97
2019-06-07T01:58:09.390Z,25.98
2019-06-07T01:59:08.439Z,25.98
2019-06-07T02:00:08.417Z,25.87
2019-06-07T02:01:08.401Z,25.93
2019-06-07T02:02:08.406Z,25.94
2019-06-07T02:03:08.387Z,25.97
2019-06-07T02:04:08.397Z,25.94
2019-06-07T02:05:08.397Z,25.91
2019-06-07T02:06:08.357Z,25.94
2019-06-07T02:07:08.332Z,25.91
2019-06-07T02:08:08.337Z,25.93
2019-06-07T02:09:08.327Z,25.98
2019-06-07T02:10:08.308Z,25.89
2019-06-07T02:11:08.348Z,25.89
2019-06-07T02:12:25.005Z,25.91
2019-06-07T02:13:09.181Z,26.02
2019-06-07T02:14:08.264Z,25.94
2019-06-07T02:15:08.246Z,25.90
2019-06-07T02:16:08.233Z,25.86
2019-06-07T02:17:11.120Z,25.89
2019-06-07T02:18:08.230Z,25.94
2019-06-07T02:19:08.197Z,25.89
2019-06-07T02:20:08.243Z,25.91
2019-06-07T02:21:08.181Z,25.89
2019-06-07T02:22:08.172Z,25.90
2019-06-07T02:23:08.192Z,25.87
2019-06-07T02:24:08.156Z,25.91
2019-06-07T02:26:09.022Z,25.89
2019-06-07T02:27:08.116Z,25.93
2019-06-07T02:28:27.432Z,25.89
2019-06-07T02:29:09.048Z,25.86
2019-06-07T02:30:36.888Z,25.87
2019-06-07T02:31:08.997Z,25.91
2019-06-07T02:32:08.057Z,25.91
2019-06-07T02:33:08.046Z,25.90
2019-06-07T02:34:08.038Z,25.93
2019-06-07T02:35:08.059Z,25.97
2019-06-07T02:36:08.013Z,25.90
2019-06-07T02:37:08.013Z,25.90
2019-06-07T02:38:07.992Z,25.84
2019-06-07T02:39:07.992Z,25.90
2019-06-07T02:40:07.976Z,25.94
2019-06-07T02:41:08.006Z,25.87
2019-06-07T02:42:07.947Z,25.87
2019-06-07T02:43:08.086Z,25.89
2019-06-07T02:44:07.928Z,25.89
2019-06-07T02:45:07.907Z,25.89
2019-06-07T02:46:25.322Z,25.97
2019-06-07T02:47:08.838Z,25.90
2019-06-07T02:48:07.882Z,25.94
2019-06-07T02:49:07.862Z,25.93
2019-06-07T02:50:07.858Z,25.87
2019-06-07T02:51:07.752Z,25.94
2019-06-07T02:52:07.830Z,25.94
2019-06-07T02:53:07.918Z,25.91
2019-06-07T02:54:07.813Z,25.97
2019-06-07T02:55:07.790Z,25.87
2019-06-07T02:57:08.684Z,25.90
2019-06-07T02:58:07.811Z,25.93
2019-06-07T02:59:07.796Z,25.93
2019-06-07T03:00:40.644Z,25.84
2019-06-07T03:01:09.927Z,25.90
2019-06-07T03:02:07.720Z,25.87
2019-06-07T03:03:07.703Z,25.87
2019-06-07T03:04:07.689Z,25.79
2019-06-07T03:05:07.741Z,25.91
2019-06-07T03:06:07.673Z,25.89
2019-06-07T03:07:07.679Z,25.80
2019-06-07T03:08:07.648Z,25.84
2019-06-07T03:09:07.638Z,25.83
2019-06-07T03:10:07.632Z,25.83
2019-06-07T03:11:07.667Z,25.80
2019-06-07T03:12:07.604Z,25.86
2019-06-07T03:13:07.595Z,25.87
2019-06-07T03:14:07.589Z,25.80
2019-06-07T03:15:07.577Z,25.87
2019-06-07T03:16:07.560Z,25.83
2019-06-07T03:17:07.595Z,25.82
2019-06-07T03:18:07.593Z,25.80
2019-06-07T03:19:07.539Z,25.75
2019-06-07T03:20:07.510Z,25.84
2019-06-07T03:21:07.510Z,25.82
2019-06-07T03:22:07.494Z,25.83
2019-06-07T03:23:10.082Z,25.84
2019-06-07T03:24:07.471Z,25.86
2019-06-07T03:25:07.466Z,25.79
2019-06-07T03:26:07.469Z,25.83
2019-06-07T03:28:08.379Z,25.84
2019-06-07T03:29:07.478Z,25.80
2019-06-07T03:30:35.961Z,25.87
2019-06-07T03:31:08.304Z,25.80
2019-06-07T03:32:07.396Z,25.84
2019-06-07T03:33:07.391Z,25.87
2019-06-07T03:34:07.359Z,25.82
2019-06-07T03:35:07.400Z,25.84
2019-06-07T03:36:22.864Z,25.80
2019-06-07T03:37:08.237Z,25.82
2019-06-07T03:38:07.314Z,25.79
2019-06-07T03:39:07.299Z,25.75
2019-06-07T03:40:07.298Z,25.80
2019-06-07T03:41:07.231Z,25.79
2019-06-07T03:42:08.636Z,25.84
2019-06-07T03:43:07.289Z,25.89
2019-06-07T03:44:07.255Z,25.87
2019-06-07T03:45:07.247Z,25.91
2019-06-07T03:46:07.278Z,25.91
2019-06-07T03:47:07.215Z,25.87
2019-06-07T03:48:07.226Z,25.79
2019-06-07T03:49:07.193Z,25.82
2019-06-07T03:50:07.179Z,25.82
2019-06-07T03:52:08.209Z,25.84
2019-06-07T03:53:09.781Z,25.82
2019-06-07T03:54:07.135Z,25.86
2019-06-07T03:55:07.137Z,25.84
2019-06-07T03:56:07.194Z,25.84
2019-06-07T03:57:07.111Z,25.84
2019-06-07T03:59:08.007Z,25.87
2019-06-07T04:00:07.085Z,25.86
2019-06-07T04:01:07.072Z,25.84
2019-06-07T04:02:07.061Z,25.84
2019-06-07T04:03:07.028Z,25.87
2019-06-07T04:04:07.071Z,25.86
2019-06-07T04:05:07.025Z,25.86
2019-06-07T04:06:07.005Z,25.87
2019-06-07T04:07:06.992Z,25.89
2019-06-07T04:08:06.982Z,25.79
2019-06-07T04:09:07.012Z,25.87
2019-06-07T04:10:07.015Z,25.91
2019-06-07T04:11:06.966Z,25.86
2019-06-07T04:12:06.937Z,25.91
2019-06-07T04:13:06.919Z,25.86
2019-06-07T04:14:06.987Z,25.80
2019-06-07T04:15:06.905Z,25.90
2019-06-07T04:16:06.932Z,25.90
2019-06-07T04:17:06.888Z,25.91
2019-06-07T04:18:06.876Z,25.80
2019-06-07T04:19:06.857Z,25.87
2019-06-07T04:20:06.862Z,25.93
2019-06-07T04:21:06.832Z,25.97
2019-06-07T04:22:06.902Z,25.90
2019-06-07T04:23:27.306Z,25.94
2019-06-07T04:24:07.720Z,25.84
2019-06-07T04:25:06.780Z,25.94
2019-06-07T04:26:06.793Z,25.89
2019-06-07T04:27:06.767Z,25.91
2019-06-07T04:28:06.822Z,25.97
2019-06-07T04:29:32.278Z,25.89
2019-06-07T04:30:08.380Z,25.97
2019-06-07T04:31:06.725Z,25.97
2019-06-07T04:32:06.721Z,25.90
2019-06-07T04:33:06.699Z,25.97
2019-06-07T04:34:06.733Z,25.90
2019-06-07T04:35:06.672Z,25.93
2019-06-07T04:36:06.670Z,25.94
2019-06-07T04:37:06.653Z,25.93
2019-06-07T04:38:06.642Z,25.86
2019-06-07T04:39:06.636Z,25.91
2019-06-07T04:40:06.645Z,25.98
2019-06-07T04:41:06.612Z,25.94
2019-06-07T04:42:06.597Z,25.98
2019-06-07T04:43:06.616Z,25.98
2019-06-07T04:44:06.630Z,25.93
2019-06-07T04:45:06.559Z,25.94
2019-06-07T04:46:06.570Z,25.98
2019-06-07T04:47:06.575Z,25.97
2019-06-07T04:48:06.587Z,26.01
2019-06-07T04:49:09.265Z,25.98
2019-06-07T04:50:06.541Z,25.97
2019-06-07T04:51:06.553Z,25.97
2019-06-07T04:52:06.487Z,25.98
2019-06-07T04:53:06.555Z,25.99
2019-06-07T04:54:06.456Z,25.94
2019-06-07T04:55:06.454Z,25.97
2019-06-07T04:56:06.446Z,25.97
2019-06-07T04:57:06.461Z,25.99
2019-06-07T04:58:06.429Z,25.99
2019-06-07T04:59:06.455Z,25.94
2019-06-07T05:00:46.909Z,25.98
2019-06-07T05:01:24.351Z,25.97
2019-06-07T05:02:07.303Z,25.98
2019-06-07T05:03:06.275Z,25.90
2019-06-07T05:04:06.261Z,26.01
2019-06-07T05:05:06.396Z,26.01
2019-06-07T05:06:06.230Z,25.97
2019-06-07T05:07:06.229Z,25.91
2019-06-07T05:08:07.872Z,25.98
2019-06-07T05:09:07.301Z,25.97
2019-06-07T05:10:06.192Z,26.01
2019-06-07T05:11:06.238Z,26.01
2019-06-07T05:12:06.261Z,25.99
2019-06-07T05:13:06.255Z,25.98
2019-06-07T05:14:06.231Z,25.99
2019-06-07T05:15:06.234Z,26.01
2019-06-07T05:16:06.207Z,25.99
2019-06-07T05:17:06.249Z,26.06
2019-06-07T05:18:06.182Z,26.09
2019-06-07T05:19:08.785Z,26.01
2019-06-07T05:20:06.171Z,26.11
2019-06-07T05:21:06.177Z,26.01
2019-06-07T05:22:06.157Z,26.05
2019-06-07T05:23:06.109Z,26.01
2019-06-07T05:24:09.985Z,26.08
2019-06-07T05:25:06.125Z,26.05
2019-06-07T05:26:06.066Z,25.99
2019-06-07T05:27:06.299Z,26.02
2019-06-07T05:28:06.082Z,26.02
2019-06-07T05:29:06.114Z,26.02
2019-06-07T05:30:23.885Z,26.05
2019-06-07T05:31:07.994Z,26.05
2019-06-07T05:32:06.121Z,26.01
2019-06-07T05:33:06.055Z,26.04
2019-06-07T05:34:06.075Z,25.99
2019-06-07T05:35:06.062Z,26.04
2019-06-07T05:36:06.012Z,26.08
2019-06-07T05:37:11.703Z,26.04
2019-06-07T05:38:06.963Z,26.06
2019-06-07T05:39:05.952Z,26.08
2019-06-07T05:40:05.944Z,26.05
2019-06-07T05:41:05.938Z,26.04
2019-06-07T05:42:05.849Z,26.11
2019-06-07T05:43:05.876Z,26.05
2019-06-07T05:44:12.469Z,26.02
2019-06-07T05:45:06.954Z,26.05
2019-06-07T05:46:05.790Z,26.06
2019-06-07T05:47:05.785Z,26.11
2019-06-07T05:48:05.775Z,26.09
2019-06-07T05:49:05.826Z,26.09
2019-06-07T05:50:05.849Z,26.12
2019-06-07T05:51:05.838Z,26.09
2019-06-07T05:52:05.720Z,26.09
2019-06-07T05:53:05.735Z,26.06
2019-06-07T05:54:05.694Z,26.17
2019-06-07T05:55:05.757Z,26.09
2019-06-07T05:56:05.686Z,26.12
2019-06-07T05:57:05.679Z,26.09
2019-06-07T05:58:05.655Z,26.09
2019-06-07T05:59:05.651Z,26.09
2019-06-07T06:00:05.674Z,26.08
2019-06-07T06:01:41.589Z,26.17
2019-06-07T06:02:21.843Z,26.12
2019-06-07T06:03:06.590Z,26.11
2019-06-07T06:04:05.676Z,26.11
2019-06-07T06:05:05.695Z,26.15
2019-06-07T06:06:05.603Z,26.12
2019-06-07T06:07:05.684Z,26.20
2019-06-07T06:08:05.634Z,26.18
2019-06-07T06:09:13.778Z,26.12
2019-06-07T06:10:06.599Z,26.18
2019-06-07T06:11:05.618Z,26.18
2019-06-07T06:12:05.590Z,26.09
2019-06-07T06:13:05.613Z,26.17
2019-06-07T06:14:08.330Z,26.21
2019-06-07T06:15:05.473Z,26.20
2019-06-07T06:16:05.445Z,26.12
2019-06-07T06:17:05.445Z,26.17
2019-06-07T06:18:05.430Z,26.15
2019-06-07T06:19:05.459Z,26.12
2019-06-07T06:20:05.566Z,26.20
2019-06-07T06:21:18.913Z,26.24
2019-06-07T06:22:06.401Z,26.21
2019-06-07T06:23:05.363Z,26.22
2019-06-07T06:24:05.350Z,26.24
2019-06-07T06:25:34.537Z,26.25
2019-06-07T06:26:06.353Z,26.25
2019-06-07T06:27:28.432Z,26.20
2019-06-07T06:28:12.070Z,26.27
2019-06-07T06:29:06.297Z,26.21
2019-06-07T06:30:05.287Z,26.28
2019-06-07T06:31:05.333Z,26.24
2019-06-07T06:33:06.290Z,26.25
2019-06-07T06:34:05.294Z,26.25
2019-06-07T06:35:05.245Z,26.31
2019-06-07T06:36:05.301Z,26.31
2019-06-07T06:37:05.212Z,26.31
2019-06-07T06:38:05.210Z,26.32
2019-06-07T06:39:05.288Z,26.24
2019-06-07T06:40:05.223Z,26.35
2019-06-07T06:41:15.729Z,26.31
2019-06-07T06:42:06.163Z,26.35
2019-06-07T06:43:05.155Z,26.32
2019-06-07T06:44:05.229Z,26.28
2019-06-07T06:45:05.212Z,26.36
2019-06-07T06:46:05.243Z,26.36
2019-06-07T06:47:05.144Z,26.31
2019-06-07T06:48:05.106Z,26.32
2019-06-07T06:49:05.088Z,26.44
2019-06-07T06:50:05.069Z,26.39
2019-06-07T06:51:05.073Z,26.46
2019-06-07T06:52:05.079Z,26.40
2019-06-07T06:53:05.035Z,26.40
2019-06-07T06:54:05.073Z,26.44
2019-06-07T06:55:05.018Z,26.36
2019-06-07T06:56:05.829Z,26.44
2019-06-07T06:57:19.264Z,26.49
2019-06-07T06:58:06.349Z,26.42
2019-06-07T07:00:06.031Z,26.46
2019-06-07T07:01:06.828Z,26.44
2019-06-07T07:02:04.982Z,26.42
2019-06-07T07:03:47.337Z,26.46
2019-06-07T07:04:13.012Z,26.43
2019-06-07T07:05:05.905Z,26.46
2019-06-07T07:06:24.632Z,26.47
2019-06-07T07:07:05.969Z,26.47
2019-06-07T07:08:04.914Z,26.54
2019-06-07T07:09:04.861Z,26.47
2019-06-07T07:10:04.938Z,26.55
2019-06-07T07:11:04.929Z,26.52
2019-06-07T07:12:11.698Z,26.52
2019-06-07T07:13:05.979Z,26.55
2019-06-07T07:14:04.882Z,26.58
2019-06-07T07:15:06.269Z,26.47
2019-06-07T07:16:04.875Z,26.57
2019-06-07T07:17:04.867Z,26.50
2019-06-07T07:18:08.709Z,26.59
2019-06-07T07:19:04.843Z,26.58
2019-06-07T07:20:04.783Z,26.52
2019-06-07T07:21:04.722Z,26.57
2019-06-07T07:22:04.713Z,26.64
2019-06-07T07:23:04.803Z,26.57
2019-06-07T07:24:20.097Z,26.61
2019-06-07T07:25:05.674Z,26.62
2019-06-07T07:26:04.682Z,26.59
2019-06-07T07:27:04.669Z,26.62
2019-06-07T07:28:04.797Z,26.55
2019-06-07T07:29:04.646Z,26.59
2019-06-07T07:30:35.284Z,26.64
2019-06-07T07:31:05.629Z,26.57
2019-06-07T07:32:04.667Z,26.50
2019-06-07T07:33:06.276Z,26.55
2019-06-07T07:35:05.575Z,26.52
2019-06-07T07:36:23.152Z,26.52
2019-06-07T07:37:05.601Z,26.52
2019-06-07T07:38:04.630Z,26.47
2019-06-07T07:39:05.603Z,26.55
2019-06-07T07:40:54.969Z,26.52
2019-06-07T07:41:14.410Z,26.55
2019-06-07T07:42:20.192Z,26.58
2019-06-07T07:43:05.657Z,26.46
2019-06-07T07:44:07.038Z,26.52
2019-06-07T07:45:04.635Z,26.47
2019-06-07T07:46:27.934Z,26.54
2019-06-07T07:47:05.439Z,26.49
2019-06-07T07:48:15.274Z,26.62
2019-06-07T07:49:05.614Z,26.57
2019-06-07T07:50:04.509Z,26.52
2019-06-07T07:51:04.540Z,26.57
2019-06-07T07:52:04.503Z,26.52
2019-06-07T07:53:04.483Z,26.54
2019-06-07T07:54:10.764Z,26.55
2019-06-07T07:55:05.500Z,26.52
2019-06-07T07:56:04.635Z,26.54
2019-06-07T07:57:04.478Z,26.55
2019-06-07T07:58:04.417Z,26.59
2019-06-07T07:59:04.625Z,26.52
2019-06-07T08:00:47.818Z,26.52
2019-06-07T08:01:10.601Z,26.57
2019-06-07T08:02:05.416Z,26.52
2019-06-07T08:03:04.787Z,26.57
2019-06-07T08:04:04.372Z,26.59
2019-06-07T08:05:21.067Z,26.54
2019-06-07T08:06:05.412Z,26.55
2019-06-07T08:07:04.240Z,26.52
2019-06-07T08:08:07.442Z,26.59
2019-06-07T08:09:04.220Z,26.57
2019-06-07T08:10:04.601Z,26.62
2019-06-07T08:11:04.171Z,26.52
2019-06-07T08:12:04.176Z,26.54
2019-06-07T08:13:23.601Z,26.57
2019-06-07T08:14:05.199Z,26.55
2019-06-07T08:15:04.286Z,26.58
2019-06-07T08:16:10.871Z,26.57
2019-06-07T08:17:05.136Z,26.62
2019-06-07T08:18:04.820Z,26.59
2019-06-07T08:19:04.696Z,26.61
2019-06-07T08:20:04.106Z,26.57
2019-06-07T08:21:21.900Z,26.59
2019-06-07T08:22:05.054Z,26.62
2019-06-07T08:23:04.049Z,26.65
2019-06-07T08:24:05.348Z,26.59
2019-06-07T08:25:04.574Z,26.59
2019-06-07T08:26:04.011Z,26.64
2019-06-07T08:27:24.353Z,26.64
2019-06-07T08:28:04.995Z,26.61
2019-06-07T08:29:03.987Z,26.61
2019-06-07T08:30:35.417Z,26.67
2019-06-07T08:31:07.117Z,26.73
2019-06-07T08:32:03.978Z,26.65
2019-06-07T08:33:24.902Z,26.68
2019-06-07T08:34:04.929Z,26.68
2019-06-07T08:35:06.685Z,26.64
2019-06-07T08:36:16.952Z,26.72
2019-06-07T08:37:04.891Z,26.72
2019-06-07T08:38:46.608Z,26.69
2019-06-07T08:39:07.476Z,26.64
2019-06-07T08:40:03.882Z,26.69
2019-06-07T08:41:11.453Z,26.74
2019-06-07T08:42:15.460Z,26.73
2019-06-07T08:43:18.116Z,26.73
2019-06-07T08:44:22.689Z,26.69
2019-06-07T08:45:05.716Z,26.76
2019-06-07T08:46:07.443Z,26.77
2019-06-07T08:47:19.403Z,26.74
2019-06-07T08:48:18.214Z,26.74
2019-06-07T08:49:04.951Z,26.69
2019-06-07T08:50:07.903Z,26.69
2019-06-07T08:51:08.275Z,26.76
2019-06-07T08:52:11.452Z,26.72
2019-06-07T08:53:11.862Z,26.76
2019-06-07T08:54:21.765Z,26.77
2019-06-07T08:55:05.322Z,26.77
2019-06-07T08:56:09.016Z,26.69
2019-06-07T08:57:19.323Z,26.79
2019-06-07T08:58:08.536Z,26.81
2019-06-07T08:59:11.096Z,26.73
2019-06-07T09:00:16.180Z,26.69
2019-06-07T09:01:08.472Z,26.68
2019-06-07T09:02:14.678Z,26.77
2019-06-07T09:03:07.173Z,26.76
2019-06-07T09:04:10.501Z,26.76
2019-06-07T09:05:11.764Z,26.72
2019-06-07T09:06:16.139Z,26.74
2019-06-07T09:07:18.179Z,26.69
2019-06-07T09:08:28.640Z,26.77
2019-06-07T09:09:05.386Z,26.79
2019-06-07T09:10:09.555Z,26.77
2019-06-07T09:11:10.234Z,26.76
2019-06-07T09:12:08.119Z,26.81
2019-06-07T09:13:10.842Z,26.80
2019-06-07T09:14:08.855Z,26.76
2019-06-07T09:15:19.872Z,26.77
2019-06-07T09:16:08.199Z,26.76
2019-06-07T09:17:11.032Z,26.79
2019-06-07T09:19:10.672Z,26.74
2019-06-07T09:20:08.940Z,26.80
2019-06-07T09:21:09.383Z,26.83
2019-06-07T09:22:10.675Z,26.86
2019-06-07T09:23:15.731Z,26.84
2019-06-07T09:24:11.308Z,26.84
2019-06-07T09:25:17.226Z,26.84
2019-06-07T09:26:15.358Z,26.83
2019-06-07T09:27:07.670Z,26.83
2019-06-07T09:28:14.114Z,26.86
2019-06-07T09:29:08.718Z,26.86
2019-06-07T09:30:11.245Z,26.79
2019-06-07T09:31:09.903Z,26.87
2019-06-07T09:32:10.075Z,26.92
2019-06-07T09:33:06.919Z,26.87
2019-06-07T09:34:07.994Z,26.81
2019-06-07T09:35:08.113Z,26.86
2019-06-07T09:36:07.994Z,26.87
2019-06-07T09:37:54.703Z,26.89
2019-06-07T09:38:14.363Z,26.94
2019-06-07T09:39:09.572Z,26.94
2019-06-07T09:40:20.459Z,26.95
2019-06-07T09:41:06.155Z,26.92
2019-06-07T09:42:08.441Z,26.92
2019-06-07T09:43:54.272Z,26.94
2019-06-07T09:44:19.006Z,26.92
2019-06-07T09:45:08.731Z,26.91
2019-06-07T09:46:11.452Z,26.87
2019-06-07T09:47:22.276Z,26.96
2019-06-07T09:48:11.570Z,26.91
2019-06-07T09:49:22.921Z,26.98
2019-06-07T09:50:09.027Z,26.98
2019-06-07T09:51:09.697Z,26.92
2019-06-07T09:52:10.337Z,26.96
2019-06-07T09:53:13.975Z,26.98
2019-06-07T09:54:08.141Z,26.99
2019-06-07T09:55:12.406Z,26.95
2019-06-07T09:56:08.374Z,26.96
2019-06-07T09:57:07.793Z,26.95
2019-06-07T09:58:47.769Z,26.96
2019-06-07T09:59:07.465Z,26.96
2019-06-07T10:00:36.089Z,26.96
2019-06-07T10:01:09.933Z,26.96
2019-06-07T10:02:08.234Z,27.02
2019-06-07T10:03:15.787Z,26.99
2019-06-07T10:04:09.148Z,26.99
2019-06-07T10:05:07.463Z,26.99
2019-06-07T10:06:09.713Z,27.01
2019-06-07T10:07:13.287Z,26.95
2019-06-07T10:08:16.093Z,27.02
2019-06-07T10:10:25.778Z,27.01
2019-06-07T10:11:04.735Z,27.06
2019-06-07T10:12:02.853Z,27.06
2019-06-07T10:13:04.035Z,26.91
2019-06-07T10:14:02.857Z,26.96
2019-06-07T10:15:03.121Z,26.98
2019-06-07T10:16:02.859Z,27.06
2019-06-07T10:17:03.181Z,26.96
2019-06-07T10:18:02.900Z,27.06
2019-06-07T10:19:03.703Z,26.94
2019-06-07T10:20:04.023Z,26.99
2019-06-07T10:21:03.715Z,27.10
2019-06-07T10:22:03.384Z,27.06
2019-06-07T10:23:03.691Z,27.13
2019-06-07T10:24:03.469Z,27.02
2019-06-07T10:25:04.274Z,27.06
2019-06-07T10:26:04.018Z,27.10
2019-06-07T10:27:04.041Z,27.05
2019-06-07T10:28:03.837Z,27.02
2019-06-07T10:29:04.879Z,27.05
2019-06-07T10:30:03.975Z,27.04
2019-06-07T10:31:04.404Z,27.06
2019-06-07T10:32:02.710Z,27.05
2019-06-07T10:33:02.636Z,27.05
2019-06-07T10:34:02.636Z,27.05
2019-06-07T10:35:03.321Z,27.01
2019-06-07T10:36:02.604Z,27.09
2019-06-07T10:37:04.925Z,27.09
2019-06-07T10:38:02.624Z,27.06
2019-06-07T10:39:02.949Z,27.04
2019-06-07T10:40:02.921Z,27.04
2019-06-07T10:41:02.875Z,27.16
2019-06-07T10:42:04.072Z,27.06
2019-06-07T10:43:02.942Z,27.16
2019-06-07T10:44:03.333Z,27.17
2019-06-07T10:45:04.475Z,27.16
2019-06-07T10:46:03.649Z,27.16
2019-06-07T10:47:03.848Z,27.21
2019-06-07T10:48:03.599Z,27.14
2019-06-07T10:49:03.676Z,27.23
2019-06-07T10:50:03.762Z,27.09
2019-06-07T10:51:02.447Z,27.20
2019-06-07T10:52:04.967Z,27.21
2019-06-07T10:53:02.516Z,27.23
2019-06-07T10:54:11.230Z,27.20
2019-06-07T10:55:04.565Z,27.24
2019-06-07T10:56:02.944Z,27.21
2019-06-07T10:57:02.925Z,27.21
2019-06-07T10:58:02.750Z,27.23
2019-06-07T10:59:03.084Z,27.21
2019-06-07T11:00:03.505Z,27.21
2019-06-07T11:01:03.362Z,27.23
2019-06-07T11:02:03.424Z,27.21
2019-06-07T11:03:03.608Z,27.23
2019-06-07T11:04:03.379Z,27.23
2019-06-07T11:05:03.701Z,27.23
2019-06-07T11:06:03.641Z,27.26
2019-06-07T11:07:02.488Z,27.29
2019-06-07T11:08:02.253Z,27.31
2019-06-07T11:09:02.262Z,27.33
2019-06-07T11:10:07.499Z,27.32
2019-06-07T11:11:03.853Z,27.33
2019-06-07T11:12:02.345Z,27.31
2019-06-07T11:13:02.222Z,27.35
2019-06-07T11:14:02.292Z,27.38
2019-06-07T11:15:02.288Z,27.31
2019-06-07T11:16:02.261Z,27.36
2019-06-07T11:17:02.273Z,27.35
2019-06-07T11:18:02.288Z,27.35
2019-06-07T11:19:02.246Z,27.36
2019-06-07T11:20:02.302Z,27.35
2019-06-07T11:21:02.205Z,27.31
2019-06-07T11:22:02.184Z,27.36
2019-06-07T11:23:02.178Z,27.28
2019-06-07T11:24:02.173Z,27.38
2019-06-07T11:25:02.426Z,27.32
2019-06-07T11:26:02.060Z,27.32
2019-06-07T11:27:02.061Z,27.32
2019-06-07T11:28:02.051Z,27.31
2019-06-07T11:29:02.046Z,27.38
2019-06-07T11:30:02.349Z,27.38
2019-06-07T11:31:02.012Z,27.42
2019-06-07T11:32:02.010Z,27.36
2019-06-07T11:33:01.999Z,27.32
2019-06-07T11:34:01.967Z,27.41
2019-06-07T11:35:01.968Z,27.35
2019-06-07T11:36:02.007Z,27.35
2019-06-07T11:37:02.050Z,27.41
2019-06-07T11:38:01.932Z,27.38
2019-06-07T11:39:01.929Z,27.32
2019-06-07T11:40:01.946Z,27.35
2019-06-07T11:41:01.909Z,27.35
2019-06-07T11:42:01.938Z,27.35
2019-06-07T11:43:02.006Z,27.41
2019-06-07T11:44:01.877Z,27.36
2019-06-07T11:45:01.868Z,27.41
2019-06-07T11:46:01.852Z,27.36
2019-06-07T11:47:01.890Z,27.39
2019-06-07T11:48:01.872Z,27.39
2019-06-07T11:49:01.869Z,27.46
2019-06-07T11:50:01.819Z,27.47
2019-06-07T11:51:01.790Z,27.48
2019-06-07T11:52:01.796Z,27.48
2019-06-07T11:53:01.768Z,27.54
2019-06-07T11:54:01.768Z,27.53
2019-06-07T11:55:01.811Z,27.50
2019-06-07T11:56:01.753Z,27.61
2019-06-07T11:57:01.728Z,27.54
2019-06-07T11:58:01.730Z,27.59
2019-06-07T11:59:01.711Z,27.62
2019-06-07T12:00:01.687Z,27.66
2019-06-07T12:01:01.751Z,27.58
2019-06-07T12:02:01.687Z,27.61
2019-06-07T12:03:01.687Z,27.62
2019-06-07T12:04:01.648Z,27.64
2019-06-07T12:05:01.660Z,27.64
2019-06-07T12:06:01.634Z,27.64
2019-06-07T12:07:01.657Z,27.67
2019-06-07T12:08:01.630Z,27.67
2019-06-07T12:09:01.613Z,27.67
2019-06-07T12:10:01.574Z,27.69
2019-06-07T12:11:01.595Z,27.66
2019-06-07T12:12:01.575Z,27.70
2019-06-07T12:13:01.593Z,27.67
2019-06-07T12:14:01.607Z,27.69
2019-06-07T12:15:01.531Z,27.70
2019-06-07T12:16:01.537Z,27.73
2019-06-07T12:17:01.530Z,27.73
2019-06-07T12:18:01.513Z,27.74
2019-06-07T12:19:01.552Z,27.74
2019-06-07T12:20:02.249Z,27.74
2019-06-07T12:21:01.467Z,27.80
2019-06-07T12:22:01.540Z,27.70
2019-06-07T12:23:01.455Z,27.73
2019-06-07T12:24:01.458Z,27.79
2019-06-07T12:25:01.434Z,27.76
2019-06-07T12:26:01.466Z,27.79
2019-06-07T12:27:01.477Z,27.80
2019-06-07T12:28:01.401Z,27.79
2019-06-07T12:29:01.388Z,27.73
2019-06-07T12:30:09.193Z,27.76
2019-06-07T12:31:02.372Z,27.76
2019-06-07T12:32:01.350Z,27.88
2019-06-07T12:33:01.376Z,27.80
2019-06-07T12:34:01.335Z,27.86
2019-06-07T12:35:01.334Z,27.77
2019-06-07T12:36:01.312Z,27.86
2019-06-07T12:37:01.316Z,27.89
2019-06-07T12:38:01.325Z,27.79
2019-06-07T12:39:01.334Z,27.84
2019-06-07T12:40:01.259Z,27.88
2019-06-07T12:41:01.286Z,27.92
2019-06-07T12:42:01.249Z,27.86
2019-06-07T12:43:01.235Z,27.86
2019-06-07T12:44:01.251Z,27.89
2019-06-07T12:45:01.270Z,27.86
2019-06-07T12:46:01.207Z,27.92
2019-06-07T12:47:01.205Z,27.94
2019-06-07T12:48:01.188Z,27.91
2019-06-07T12:49:01.168Z,27.86
2019-06-07T12:50:01.179Z,27.86
2019-06-07T12:51:01.206Z,27.91
2019-06-07T12:52:01.147Z,27.91
2019-06-07T12:53:01.128Z,28.03
2019-06-07T12:54:01.133Z,27.91
2019-06-07T12:55:01.107Z,28.01
2019-06-07T12:56:01.122Z,27.94
2019-06-07T12:57:01.143Z,27.94
2019-06-07T12:58:01.076Z,27.94
2019-06-07T12:59:01.061Z,27.94
2019-06-07T13:00:01.049Z,27.94
2019-06-07T13:01:01.106Z,27.98
2019-06-07T13:02:02.443Z,28.03
2019-06-07T13:03:01.128Z,27.86